createdAt,value
2024-02-24T00:02:19.083Z,3.65
2024-02-24T00:05:09.447Z,2.80
2024-02-24T00:07:58.905Z,4.10
2024-02-24T00:10:48.961Z,3.00
2024-02-24T00:13:39.868Z,3.30
2024-02-24T00:16:29.385Z,3.67
2024-02-24T00:19:18.792Z,3.00
2024-02-24T00:22:08.124Z,3.67
2024-02-24T00:24:57.509Z,3.30
2024-02-24T00:27:46.902Z,3.33
2024-02-24T00:30:38.167Z,3.22
2024-02-24T00:33:27.646Z,2.55
2024-02-24T00:36:17.009Z,3.35
2024-02-24T00:39:07.057Z,3.38
2024-02-24T00:41:56.625Z,3.50
2024-02-24T00:44:46.085Z,3.15
2024-02-24T00:47:36.966Z,3.40
2024-02-24T00:50:30.441Z,3.10
2024-02-24T00:53:20.055Z,2.92
2024-02-24T00:56:09.731Z,2.90
2024-02-24T00:58:59.306Z,3.55
2024-02-24T01:01:49.542Z,3.33
2024-02-24T01:04:40.363Z,3.58
2024-02-24T01:07:29.850Z,3.22
2024-02-24T01:10:19.312Z,2.47
2024-02-24T01:13:08.721Z,2.28
2024-02-24T01:15:58.171Z,2.38
2024-02-24T01:18:47.931Z,3.30
2024-02-24T01:21:43.844Z,3.40
2024-02-24T01:24:33.272Z,2.88
2024-02-24T01:27:22.676Z,2.65
2024-02-24T01:30:13.057Z,3.30
2024-02-24T01:33:03.859Z,3.28
2024-02-24T01:35:53.542Z,3.05
2024-02-24T01:38:44.589Z,2.42
2024-02-24T01:41:34.222Z,3.00
2024-02-24T01:44:23.793Z,2.80
2024-02-24T01:47:13.448Z,2.83
2024-02-24T01:50:03.158Z,2.78
2024-02-24T01:52:52.932Z,2.88
2024-02-24T01:55:44.255Z,2.80
2024-02-24T01:58:36.828Z,3.03
2024-02-24T02:01:26.619Z,2.80
2024-02-24T02:04:18.946Z,3.35
2024-02-24T02:07:08.430Z,3.03
2024-02-24T02:09:58.867Z,3.30
2024-02-24T02:12:49.918Z,3.40
2024-02-24T02:15:39.457Z,3.28
2024-02-24T02:18:31.766Z,3.28
2024-02-24T02:21:23.250Z,3.17
2024-02-24T02:24:14.152Z,3.80
2024-02-24T02:27:07.881Z,3.88
2024-02-24T02:30:01.427Z,3.85
2024-02-24T02:32:51.127Z,4.40
2024-02-24T02:35:41.285Z,4.15
2024-02-24T02:38:30.618Z,9.43
2024-02-24T02:41:21.604Z,5.55
2024-02-24T02:44:11.678Z,5.38
2024-02-24T02:47:03.999Z,5.22
2024-02-24T02:49:55.098Z,4.32
2024-02-24T02:52:44.598Z,3.75
2024-02-24T02:55:34.046Z,3.30
2024-02-24T02:58:25.016Z,4.03
2024-02-24T03:01:14.456Z,4.07
2024-02-24T03:04:03.984Z,3.60
2024-02-24T03:06:53.645Z,3.35
2024-02-24T03:09:48.997Z,4.10
2024-02-24T03:12:38.686Z,4.22
2024-02-24T03:15:29.846Z,3.70
2024-02-24T03:18:19.386Z,4.05
2024-02-24T03:21:08.937Z,3.85
2024-02-24T03:23:58.709Z,3.22
2024-02-24T03:26:48.246Z,3.80
2024-02-24T03:29:37.674Z,3.30
2024-02-24T03:32:28.738Z,3.58
2024-02-24T03:35:18.292Z,3.20
2024-02-24T03:38:07.755Z,3.88
2024-02-24T03:40:57.087Z,3.67
2024-02-24T03:43:46.659Z,4.32
2024-02-24T03:46:36.159Z,4.70
2024-02-24T03:49:27.085Z,4.85
2024-02-24T03:52:16.496Z,4.20
2024-02-24T03:55:06.892Z,4.13
2024-02-24T03:57:56.353Z,3.70
2024-02-24T04:00:45.756Z,3.90
2024-02-24T04:03:35.150Z,3.97
2024-02-24T04:06:26.063Z,4.45
2024-02-24T04:09:15.498Z,4.40
2024-02-24T04:12:05.494Z,4.93
2024-02-24T04:14:55.832Z,4.80
2024-02-24T04:17:45.353Z,4.35
2024-02-24T04:20:34.914Z,3.80
2024-02-24T04:23:25.878Z,3.08
2024-02-24T04:26:15.201Z,3.25
2024-02-24T04:29:04.750Z,3.38
2024-02-24T04:31:54.543Z,3.22
2024-02-24T04:34:43.888Z,2.65
2024-02-24T04:37:33.396Z,3.33
2024-02-24T04:40:24.286Z,3.38
2024-02-24T04:43:13.678Z,3.75
2024-02-24T04:46:03.425Z,3.40
2024-02-24T04:48:52.862Z,4.18
2024-02-24T04:51:42.396Z,3.78
2024-02-24T04:54:31.792Z,3.08
2024-02-24T04:57:22.681Z,4.60
2024-02-24T05:00:13.722Z,3.70
2024-02-24T05:03:03.935Z,4.70
2024-02-24T05:05:53.501Z,4.03
2024-02-24T05:08:45.166Z,4.82
2024-02-24T05:11:35.046Z,4.40
2024-02-24T05:14:25.850Z,4.75
2024-02-24T05:17:17.420Z,4.70
2024-02-24T05:20:08.660Z,4.30
2024-02-24T05:22:58.129Z,5.45
2024-02-24T05:25:49.683Z,3.83
2024-02-24T05:28:39.307Z,5.20
2024-02-24T05:31:30.246Z,5.50
2024-02-24T05:34:19.611Z,5.60
2024-02-24T05:37:09.074Z,4.60
2024-02-24T05:39:59.802Z,6.88
2024-02-24T05:42:49.321Z,9.88
2024-02-24T05:45:39.771Z,10.07
2024-02-24T05:48:31.247Z,8.52
2024-02-24T05:51:22.678Z,8.82
2024-02-24T05:54:12.354Z,10.50
2024-02-24T05:57:03.403Z,10.73
2024-02-24T05:59:53.316Z,10.45
2024-02-24T06:02:42.698Z,11.75
2024-02-24T06:05:33.945Z,9.80
2024-02-24T06:08:23.412Z,10.80
2024-02-24T06:11:13.071Z,10.82
2024-02-24T06:14:02.511Z,11.02
2024-02-24T06:16:51.992Z,12.35
2024-02-24T06:19:41.799Z,10.45
2024-02-24T06:22:32.790Z,11.63
2024-02-24T06:25:22.166Z,9.75
2024-02-24T06:28:12.106Z,9.45
2024-02-24T06:31:01.677Z,8.77
2024-02-24T06:33:51.481Z,8.88
2024-02-24T06:36:40.993Z,8.57
2024-02-24T06:39:31.950Z,8.20
2024-02-24T06:42:21.446Z,9.32
2024-02-24T06:45:11.493Z,6.20
2024-02-24T06:48:00.952Z,8.60
2024-02-24T06:50:50.637Z,7.63
2024-02-24T06:53:40.076Z,7.22
2024-02-24T06:56:30.959Z,6.72
2024-02-24T06:59:20.458Z,5.60
2024-02-24T07:02:10.145Z,5.35
2024-02-24T07:04:59.615Z,5.10
2024-02-24T07:07:49.239Z,6.20
2024-02-24T07:10:38.710Z,6.05
2024-02-24T07:13:29.492Z,6.90
2024-02-24T07:16:19.328Z,7.07
2024-02-24T07:19:08.842Z,6.93
2024-02-24T07:21:58.490Z,7.35
2024-02-24T07:24:47.893Z,6.30
2024-02-24T07:27:37.372Z,5.47
2024-02-24T07:30:28.512Z,6.50
2024-02-24T07:33:18.028Z,5.65
2024-02-24T07:36:08.708Z,6.10
2024-02-24T07:38:58.237Z,6.45
2024-02-24T07:41:47.945Z,6.00
2024-02-24T07:44:37.521Z,6.25
2024-02-24T07:47:28.384Z,6.75
2024-02-24T07:50:18.272Z,63.22
2024-02-24T07:53:08.762Z,17.02
2024-02-24T07:55:58.225Z,19.95
2024-02-24T07:58:47.553Z,7.47
2024-02-24T08:01:36.918Z,7.47
2024-02-24T08:04:27.617Z,6.75
2024-02-24T08:07:17.254Z,6.63
2024-02-24T08:10:08.095Z,7.30
2024-02-24T08:12:57.490Z,7.60
2024-02-24T08:15:46.890Z,9.20
2024-02-24T08:18:36.858Z,8.18
2024-02-24T08:21:27.869Z,6.45
2024-02-24T08:24:18.096Z,8.98
2024-02-24T08:27:07.739Z,11.52
2024-02-24T08:29:57.123Z,8.73
2024-02-24T08:32:48.548Z,8.93
2024-02-24T08:35:39.103Z,8.32
2024-02-24T08:38:30.037Z,9.57
2024-02-24T08:41:19.375Z,5.43
2024-02-24T08:44:08.848Z,7.20
2024-02-24T08:46:58.264Z,6.88
2024-02-24T08:49:47.850Z,6.55
2024-02-24T08:52:46.150Z,7.32
2024-02-24T08:55:41.109Z,8.18
2024-02-24T08:58:30.565Z,7.38
2024-02-24T09:01:20.668Z,13.05
2024-02-24T09:04:10.042Z,12.30
2024-02-24T09:06:59.477Z,12.15
2024-02-24T09:09:48.962Z,11.98
2024-02-24T09:12:39.824Z,13.13
2024-02-24T09:15:32.212Z,13.70
2024-02-24T09:18:21.877Z,13.27
2024-02-24T09:21:13.250Z,13.27
2024-02-24T09:24:02.905Z,16.90
2024-02-24T09:26:53.487Z,14.88
2024-02-24T09:29:44.726Z,16.20
2024-02-24T09:32:34.119Z,14.80
2024-02-24T09:35:23.691Z,14.40
2024-02-24T09:38:13.139Z,15.15
2024-02-24T09:41:02.863Z,14.27
2024-02-24T09:43:53.522Z,13.57
2024-02-24T09:46:45.594Z,14.55
2024-02-24T09:49:35.203Z,14.82
2024-02-24T09:52:24.919Z,13.73
2024-02-24T09:55:14.318Z,13.93
2024-02-24T09:58:04.553Z,14.90
2024-02-24T10:00:54.228Z,13.70
2024-02-24T10:03:47.174Z,13.10
2024-02-24T10:06:36.743Z,12.85
2024-02-24T10:09:26.174Z,13.20
2024-02-24T10:12:15.575Z,10.93
2024-02-24T10:15:05.245Z,8.93
2024-02-24T10:18:00.092Z,11.00
2024-02-24T10:20:52.899Z,12.82
2024-02-24T10:23:42.372Z,10.10
2024-02-24T10:26:31.912Z,10.05
2024-02-24T10:29:22.552Z,9.18
2024-02-24T10:32:13.767Z,9.13
2024-02-24T10:35:05.444Z,9.38
2024-02-24T10:38:11.422Z,7.82
2024-02-24T10:41:09.283Z,8.43
2024-02-24T10:44:10.398Z,8.88
2024-02-24T10:47:08.289Z,8.75
2024-02-24T10:49:57.714Z,8.85
2024-02-24T10:52:48.055Z,9.98
2024-02-24T10:55:40.068Z,10.23
2024-02-24T10:58:29.591Z,9.45
2024-02-24T11:01:20.791Z,10.25
2024-02-24T11:04:11.677Z,9.18
2024-02-24T11:07:02.599Z,8.55
2024-02-24T11:09:56.423Z,6.50
2024-02-24T11:12:47.295Z,3.88
2024-02-24T11:15:36.593Z,4.82
2024-02-24T11:18:56.524Z,5.07
2024-02-24T11:22:03.651Z,4.43
2024-02-24T11:25:03.549Z,4.30
2024-02-24T11:27:59.613Z,3.95
2024-02-24T11:30:53.913Z,3.63
2024-02-24T11:33:43.555Z,4.43
2024-02-24T11:36:34.773Z,3.75
2024-02-24T11:39:25.128Z,4.30
2024-02-24T11:42:16.544Z,4.35
2024-02-24T11:45:09.571Z,4.10
2024-02-24T11:47:59.074Z,3.92
2024-02-24T11:50:49.298Z,3.67
2024-02-24T11:53:38.715Z,4.50
2024-02-24T11:56:28.222Z,4.20
2024-02-24T11:59:18.017Z,3.47
2024-02-24T12:02:08.934Z,3.50
2024-02-24T12:05:15.423Z,3.10
2024-02-24T12:08:07.829Z,3.13
2024-02-24T12:10:57.346Z,2.90
2024-02-24T12:13:48.108Z,3.72
2024-02-24T12:16:39.420Z,2.90
2024-02-24T12:19:31.965Z,2.83
2024-02-24T12:22:24.317Z,2.40
2024-02-24T12:25:17.075Z,2.42
2024-02-24T12:28:07.894Z,3.08
2024-02-24T12:30:57.328Z,4.05
2024-02-24T12:33:47.857Z,3.70
2024-02-24T12:36:38.828Z,3.67
2024-02-24T12:39:31.168Z,3.75
2024-02-24T12:42:21.229Z,3.80
2024-02-24T12:45:11.482Z,3.80
2024-02-24T12:48:00.831Z,3.17
2024-02-24T12:50:51.159Z,2.40
2024-02-24T12:53:42.846Z,2.53
2024-02-24T12:56:32.361Z,2.05
2024-02-24T12:59:23.470Z,1.90
2024-02-24T13:02:13.034Z,1.73
2024-02-24T13:05:02.558Z,1.67
2024-02-24T13:07:53.156Z,2.08
2024-02-24T13:10:44.284Z,1.63
2024-02-24T13:13:33.656Z,2.00
2024-02-24T13:16:23.036Z,1.98
2024-02-24T13:19:12.453Z,2.25
2024-02-24T13:22:01.935Z,2.03
2024-02-24T13:24:51.396Z,2.70
2024-02-24T13:27:42.231Z,2.33
2024-02-24T13:30:31.467Z,2.83
2024-02-24T13:33:21.179Z,3.78
2024-02-24T13:36:11.072Z,3.72
2024-02-24T13:39:00.716Z,3.92
2024-02-24T13:41:52.668Z,4.75
2024-02-24T13:44:43.701Z,4.53
2024-02-24T13:47:33.122Z,5.05
2024-02-24T13:50:23.982Z,5.93
2024-02-24T13:53:13.633Z,5.28
2024-02-24T13:56:05.170Z,7.18
2024-02-24T13:58:55.075Z,9.02
2024-02-24T14:01:45.769Z,6.82
2024-02-24T14:04:35.129Z,5.30
2024-02-24T14:07:25.212Z,4.32
2024-02-24T14:10:14.473Z,4.82
2024-02-24T14:13:04.030Z,5.60
2024-02-24T14:15:53.442Z,6.40
2024-02-24T14:18:44.356Z,6.95
2024-02-24T14:21:33.763Z,8.40
2024-02-24T14:24:23.161Z,7.40
2024-02-24T14:27:12.609Z,7.53
2024-02-24T14:30:02.055Z,8.18
2024-02-24T14:32:52.191Z,8.77
2024-02-24T14:35:43.374Z,9.40
2024-02-24T14:38:33.006Z,9.00
2024-02-24T14:41:22.903Z,9.35
2024-02-24T14:44:12.533Z,8.57
2024-02-24T14:47:06.399Z,8.82
2024-02-24T14:49:55.961Z,8.38
2024-02-24T14:52:47.046Z,7.90
2024-02-24T14:55:36.416Z,6.72
2024-02-24T14:58:25.776Z,6.93
2024-02-24T15:01:15.944Z,8.75
2024-02-24T15:04:06.193Z,8.10
2024-02-24T15:06:55.982Z,5.55
2024-02-24T15:09:48.925Z,5.85
2024-02-24T15:12:38.486Z,7.78
2024-02-24T15:15:27.776Z,5.85
2024-02-24T15:18:17.439Z,5.32
2024-02-24T15:21:07.835Z,5.78
2024-02-24T15:23:57.280Z,6.15
2024-02-24T15:26:48.398Z,8.93
2024-02-24T15:29:37.991Z,5.50
2024-02-24T15:32:27.638Z,6.05
2024-02-24T15:35:17.617Z,5.82
2024-02-24T15:38:07.756Z,4.53
2024-02-24T15:40:57.139Z,5.30
2024-02-24T15:43:48.222Z,5.50
2024-02-24T15:46:37.680Z,4.43
2024-02-24T15:49:27.004Z,5.18
2024-02-24T15:52:16.758Z,5.00
2024-02-24T15:55:07.085Z,5.00
2024-02-24T15:57:56.631Z,5.13
2024-02-24T16:00:47.875Z,5.28
2024-02-24T16:03:37.411Z,4.65
2024-02-24T16:06:27.434Z,5.13
2024-02-24T16:09:17.478Z,5.22
2024-02-24T16:12:07.973Z,5.18
2024-02-24T16:14:57.394Z,4.57
2024-02-24T16:17:49.194Z,6.85
2024-02-24T16:20:38.625Z,4.93
2024-02-24T16:23:28.086Z,6.00
2024-02-24T16:26:17.534Z,5.22
2024-02-24T16:29:07.056Z,4.55
2024-02-24T16:31:56.617Z,4.80
2024-02-24T16:34:47.903Z,3.95
2024-02-24T16:37:37.415Z,3.80
2024-02-24T16:40:26.805Z,4.45
2024-02-24T16:43:16.217Z,4.28
2024-02-24T16:46:05.995Z,4.53
2024-02-24T16:48:55.764Z,4.68
2024-02-24T16:51:46.990Z,6.25
2024-02-24T16:54:39.118Z,5.25
2024-02-24T16:57:28.948Z,6.10
2024-02-24T17:00:19.346Z,7.70
2024-02-24T17:03:08.613Z,7.70
2024-02-24T17:05:58.680Z,9.70
2024-02-24T17:08:49.866Z,6.95
2024-02-24T17:11:39.373Z,5.65
2024-02-24T17:14:28.846Z,5.38
2024-02-24T17:17:19.473Z,6.10
2024-02-24T17:20:10.502Z,5.82
2024-02-24T17:23:03.150Z,5.80
2024-02-24T17:25:53.869Z,6.10
2024-02-24T17:28:43.349Z,6.03
2024-02-24T17:31:32.648Z,6.18
2024-02-24T17:34:22.561Z,7.50
2024-02-24T17:37:12.041Z,8.93
2024-02-24T17:40:01.449Z,7.20
2024-02-24T17:42:52.244Z,14.13
2024-02-24T17:45:41.686Z,17.20
2024-02-24T17:48:31.408Z,13.93
2024-02-24T17:51:20.911Z,10.05
2024-02-24T17:54:10.378Z,8.85
2024-02-24T17:56:59.824Z,9.85
2024-02-24T17:59:50.761Z,11.68
2024-02-24T18:02:41.156Z,15.63
2024-02-24T18:05:30.613Z,17.02
2024-02-24T18:08:20.126Z,20.17
2024-02-24T18:11:10.904Z,20.80
2024-02-24T18:14:00.583Z,20.42
2024-02-24T18:16:51.354Z,21.33
2024-02-24T18:19:40.748Z,20.55
2024-02-24T18:22:30.085Z,20.48
2024-02-24T18:25:19.642Z,19.33
2024-02-24T18:28:09.095Z,16.83
2024-02-24T18:30:59.660Z,18.80
2024-02-24T18:33:50.739Z,18.70
2024-02-24T18:36:40.469Z,20.42
2024-02-24T18:39:30.353Z,16.85
2024-02-24T18:42:23.650Z,17.63
2024-02-24T18:45:13.796Z,18.65
2024-02-24T18:48:04.054Z,20.73
2024-02-24T18:50:55.575Z,21.42
2024-02-24T18:53:48.079Z,24.33
2024-02-24T18:56:37.593Z,25.80
2024-02-24T18:59:27.058Z,27.08
2024-02-24T19:02:17.438Z,29.20
2024-02-24T19:05:07.501Z,33.70
2024-02-24T19:07:58.347Z,50.28
2024-02-24T19:10:47.869Z,67.13
2024-02-24T19:13:37.295Z,51.28
2024-02-24T19:16:26.931Z,46.55
2024-02-24T19:19:16.673Z,40.63
2024-02-24T19:22:06.499Z,41.08
2024-02-24T19:24:57.279Z,38.03
2024-02-24T19:27:47.303Z,43.22
2024-02-24T19:30:37.004Z,46.83
2024-02-24T19:33:26.609Z,49.28
2024-02-24T19:36:16.108Z,40.45
2024-02-24T19:39:15.604Z,40.30
2024-02-24T19:42:10.587Z,45.45
2024-02-24T19:45:01.009Z,44.28
2024-02-24T19:47:50.610Z,39.22
2024-02-24T19:50:40.459Z,45.90
2024-02-24T19:53:29.831Z,59.47
2024-02-24T19:56:19.262Z,89.75
2024-02-24T19:59:10.464Z,90.88
2024-02-24T20:02:00.787Z,126.72
2024-02-24T20:04:50.054Z,92.80
2024-02-24T20:07:39.585Z,58.58
2024-02-24T20:10:29.381Z,49.60
2024-02-24T20:13:18.669Z,49.00
2024-02-24T20:16:09.793Z,63.60
2024-02-24T20:18:59.243Z,67.15
2024-02-24T20:21:48.734Z,52.78
2024-02-24T20:24:38.066Z,53.13
2024-02-24T20:27:28.193Z,51.47
2024-02-24T20:30:20.801Z,46.40
2024-02-24T20:33:12.135Z,45.85
2024-02-24T20:36:01.619Z,42.30
2024-02-24T20:38:52.339Z,48.42
2024-02-24T20:41:42.487Z,49.00
2024-02-24T20:44:31.898Z,48.05
2024-02-24T20:47:22.821Z,39.13
2024-02-24T20:50:13.881Z,34.72
2024-02-24T20:53:05.285Z,34.55
2024-02-24T20:55:54.673Z,33.95
2024-02-24T20:58:44.090Z,31.98
2024-02-24T21:01:33.401Z,32.47
2024-02-24T21:04:22.917Z,39.97
2024-02-24T21:07:14.486Z,44.67
2024-02-24T21:10:03.933Z,39.03
2024-02-24T21:12:53.567Z,39.65
2024-02-24T21:15:42.909Z,49.60
2024-02-24T21:18:32.903Z,75.20
2024-02-24T21:21:23.271Z,78.57
2024-02-24T21:24:14.113Z,57.13
2024-02-24T21:27:03.677Z,52.83
2024-02-24T21:29:53.788Z,46.65
2024-02-24T21:32:43.504Z,36.13
2024-02-24T21:35:33.244Z,32.67
2024-02-24T21:38:23.057Z,30.63
2024-02-24T21:41:19.016Z,27.00
2024-02-24T21:44:09.020Z,23.05
2024-02-24T21:46:58.517Z,21.48
2024-02-24T21:49:47.872Z,18.92
2024-02-24T21:52:37.174Z,16.33
2024-02-24T21:55:27.032Z,16.55
2024-02-24T21:58:18.525Z,17.13
2024-02-24T22:01:07.888Z,17.65
2024-02-24T22:03:57.472Z,18.98
2024-02-24T22:06:47.473Z,16.63
2024-02-24T22:09:37.466Z,17.17
2024-02-24T22:12:27.142Z,18.13
2024-02-24T22:15:19.762Z,16.83
2024-02-24T22:18:09.723Z,15.63
2024-02-24T22:20:59.449Z,15.55
2024-02-24T22:23:51.678Z,15.18
2024-02-24T22:26:44.351Z,16.70
2024-02-24T22:29:34.008Z,14.95
2024-02-24T22:32:25.096Z,16.67
2024-02-24T22:35:15.563Z,15.23
2024-02-24T22:38:05.477Z,17.15
2024-02-24T22:40:54.874Z,19.17
2024-02-24T22:43:44.510Z,19.20
2024-02-24T22:46:34.360Z,19.17
2024-02-24T22:49:25.352Z,19.92
2024-02-24T22:52:17.847Z,22.73
2024-02-24T22:55:09.803Z,21.35
2024-02-24T22:57:59.468Z,20.88
2024-02-24T23:00:48.964Z,21.85
2024-02-24T23:03:38.415Z,20.67
2024-02-24T23:06:29.313Z,19.90
2024-02-24T23:09:19.104Z,21.45
2024-02-24T23:12:09.298Z,20.77
2024-02-24T23:14:58.924Z,19.50
2024-02-24T23:17:48.517Z,19.50
2024-02-24T23:20:37.810Z,19.52
2024-02-24T23:23:28.648Z,21.77
2024-02-24T23:26:18.114Z,19.88
2024-02-24T23:29:07.478Z,18.58
2024-02-24T23:31:56.864Z,17.42
2024-02-24T23:34:47.128Z,17.45
2024-02-24T23:37:36.612Z,19.48
2024-02-24T23:40:27.677Z,21.60
2024-02-24T23:43:17.001Z,18.15
2024-02-24T23:46:06.886Z,16.42
2024-02-24T23:48:56.623Z,13.90
2024-02-24T23:51:46.144Z,14.32
2024-02-24T23:54:35.676Z,13.93
2024-02-24T23:57:30.185Z,14.02
